sensor_id;sensor_type;location;lat;lon;timestamp;temperature;humidity
65989;HTU21D;53592;51.402;6.054;2023-05-19T00:01:56;11.87;60.92
65989;HTU21D;53592;51.402;6.054;2023-05-19T00:04:25;11.85;60.93
65989;HTU21D;53592;51.402;6.054;2023-05-19T00:06:52;11.81;60.95
65989;HTU21D;53592;51.402;6.054;2023-05-19T00:09:19;11.76;61.05
65989;HTU21D;53592;51.402;6.054;2023-05-19T00:11:45;11.71;61.21
65989;HTU21D;53592;51.402;6.054;2023-05-19T00:14:11;11.68;61.53
65989;HTU21D;53592;51.402;6.054;2023-05-19T00:16:37;11.66;61.51
65989;HTU21D;53592;51.402;6.054;2023-05-19T00:19:05;11.63;61.73
65989;HTU21D;53592;51.402;6.054;2023-05-19T00:21:31;11.59;61.79
65989;HTU21D;53592;51.402;6.054;2023-05-19T00:23:57;11.59;61.77
65989;HTU21D;53592;51.402;6.054;2023-05-19T00:26:24;11.59;61.79
65989;HTU21D;53592;51.402;6.054;2023-05-19T00:28:52;11.57;61.97
65989;HTU21D;53592;51.402;6.054;2023-05-19T00:31:20;11.57;62.00
65989;HTU21D;53592;51.402;6.054;2023-05-19T00:33:46;11.57;62.07
65989;HTU21D;53592;51.402;6.054;2023-05-19T00:36:11;11.54;62.08
65989;HTU21D;53592;51.402;6.054;2023-05-19T00:38:37;11.51;62.19
65989;HTU21D;53592;51.402;6.054;2023-05-19T00:41:04;11.47;62.30
65989;HTU21D;53592;51.402;6.054;2023-05-19T00:43:30;11.44;62.08
65989;HTU21D;53592;51.402;6.054;2023-05-19T00:45:58;11.42;62.31
65989;HTU21D;53592;51.402;6.054;2023-05-19T00:48:25;11.39;62.37
65989;HTU21D;53592;51.402;6.054;2023-05-19T00:50:52;11.39;62.42
65989;HTU21D;53592;51.402;6.054;2023-05-19T00:53:19;11.42;62.57
65989;HTU21D;53592;51.402;6.054;2023-05-19T00:55:46;11.41;62.59
65989;HTU21D;53592;51.402;6.054;2023-05-19T00:58:13;11.39;62.57
65989;HTU21D;53592;51.402;6.054;2023-05-19T01:00:39;11.34;62.63
65989;HTU21D;53592;51.402;6.054;2023-05-19T01:03:06;11.27;62.91
65989;HTU21D;53592;51.402;6.054;2023-05-19T01:05:39;11.18;62.99
65989;HTU21D;53592;51.402;6.054;2023-05-19T01:08:18;11.12;62.83
65989;HTU21D;53592;51.402;6.054;2023-05-19T01:10:44;10.98;63.49
65989;HTU21D;53592;51.402;6.054;2023-05-19T01:13:09;10.95;63.66
65989;HTU21D;53592;51.402;6.054;2023-05-19T01:15:51;10.93;63.66
65989;HTU21D;53592;51.402;6.054;2023-05-19T01:18:28;10.95;63.67
65989;HTU21D;53592;51.402;6.054;2023-05-19T01:21:23;10.89;63.91
65989;HTU21D;53592;51.402;6.054;2023-05-19T01:24:29;10.92;63.82
65989;HTU21D;53592;51.402;6.054;2023-05-19T01:32:53;10.97;63.68
65989;HTU21D;53592;51.402;6.054;2023-05-19T01:35:22;10.98;63.87
65989;HTU21D;53592;51.402;6.054;2023-05-19T01:37:51;11.02;63.66
65989;HTU21D;53592;51.402;6.054;2023-05-19T01:40:20;11.04;63.50
65989;HTU21D;53592;51.402;6.054;2023-05-19T01:42:49;11.03;63.70
65989;HTU21D;53592;51.402;6.054;2023-05-19T01:45:16;10.99;63.82
65989;HTU21D;53592;51.402;6.054;2023-05-19T01:47:45;10.92;63.98
65989;HTU21D;53592;51.402;6.054;2023-05-19T01:50:11;10.85;64.02
65989;HTU21D;53592;51.402;6.054;2023-05-19T01:52:37;10.82;64.47
65989;HTU21D;53592;51.402;6.054;2023-05-19T01:55:02;10.79;64.55
65989;HTU21D;53592;51.402;6.054;2023-05-19T02:00:43;10.68;64.88
65989;HTU21D;53592;51.402;6.054;2023-05-19T02:05:54;10.56;65.30
65989;HTU21D;53592;51.402;6.054;2023-05-19T02:08:29;10.52;65.42
65989;HTU21D;53592;51.402;6.054;2023-05-19T02:11:05;10.52;65.66
65989;HTU21D;53592;51.402;6.054;2023-05-19T02:13:36;10.53;65.49
65989;HTU21D;53592;51.402;6.054;2023-05-19T02:16:05;10.54;65.44
65989;HTU21D;53592;51.402;6.054;2023-05-19T02:18:32;10.49;65.69
65989;HTU21D;53592;51.402;6.054;2023-05-19T02:20:58;10.48;65.74
65989;HTU21D;53592;51.402;6.054;2023-05-19T02:23:23;10.48;65.62
65989;HTU21D;53592;51.402;6.054;2023-05-19T02:25:49;10.42;65.85
65989;HTU21D;53592;51.402;6.054;2023-05-19T02:28:14;10.39;65.88
65989;HTU21D;53592;51.402;6.054;2023-05-19T02:30:40;10.40;65.91
65989;HTU21D;53592;51.402;6.054;2023-05-19T02:33:06;10.39;66.05
65989;HTU21D;53592;51.402;6.054;2023-05-19T02:35:31;10.40;66.04
65989;HTU21D;53592;51.402;6.054;2023-05-19T02:37:58;10.43;65.95
65989;HTU21D;53592;51.402;6.054;2023-05-19T02:40:23;10.40;66.10
65989;HTU21D;53592;51.402;6.054;2023-05-19T02:42:49;10.41;66.16
65989;HTU21D;53592;51.402;6.054;2023-05-19T02:45:14;10.44;66.32
65989;HTU21D;53592;51.402;6.054;2023-05-19T02:47:40;10.46;66.21
65989;HTU21D;53592;51.402;6.054;2023-05-19T02:50:06;10.45;66.19
65989;HTU21D;53592;51.402;6.054;2023-05-19T02:52:32;10.48;66.01
65989;HTU21D;53592;51.402;6.054;2023-05-19T02:54:58;10.51;65.72
65989;HTU21D;53592;51.402;6.054;2023-05-19T02:57:23;10.50;65.95
65989;HTU21D;53592;51.402;6.054;2023-05-19T02:59:49;10.46;66.10
65989;HTU21D;53592;51.402;6.054;2023-05-19T03:02:15;10.42;66.26
65989;HTU21D;53592;51.402;6.054;2023-05-19T03:04:40;10.37;66.46
65989;HTU21D;53592;51.402;6.054;2023-05-19T03:07:07;10.34;66.61
65989;HTU21D;53592;51.402;6.054;2023-05-19T03:09:38;10.33;66.88
65989;HTU21D;53592;51.402;6.054;2023-05-19T03:12:04;10.30;66.70
65989;HTU21D;53592;51.402;6.054;2023-05-19T03:14:32;10.29;66.84
65989;HTU21D;53592;51.402;6.054;2023-05-19T03:16:58;10.25;66.93
65989;HTU21D;53592;51.402;6.054;2023-05-19T03:19:24;10.24;67.11
65989;HTU21D;53592;51.402;6.054;2023-05-19T03:21:50;10.26;67.05
65989;HTU21D;53592;51.402;6.054;2023-05-19T03:24:16;10.30;66.98
65989;HTU21D;53592;51.402;6.054;2023-05-19T03:26:42;10.30;66.94
65989;HTU21D;53592;51.402;6.054;2023-05-19T03:29:07;10.30;67.08
65989;HTU21D;53592;51.402;6.054;2023-05-19T03:31:33;10.29;66.98
65989;HTU21D;53592;51.402;6.054;2023-05-19T03:33:58;10.31;66.79
65989;HTU21D;53592;51.402;6.054;2023-05-19T03:36:24;10.35;66.72
65989;HTU21D;53592;51.402;6.054;2023-05-19T03:38:50;10.30;66.89
65989;HTU21D;53592;51.402;6.054;2023-05-19T03:41:15;10.27;67.07
65989;HTU21D;53592;51.402;6.054;2023-05-19T03:43:41;10.26;67.20
65989;HTU21D;53592;51.402;6.054;2023-05-19T03:46:06;10.27;67.18
65989;HTU21D;53592;51.402;6.054;2023-05-19T03:48:32;10.25;67.34
65989;HTU21D;53592;51.402;6.054;2023-05-19T03:50:57;10.15;67.59
65989;HTU21D;53592;51.402;6.054;2023-05-19T03:53:23;10.10;67.49
65989;HTU21D;53592;51.402;6.054;2023-05-19T03:55:48;10.09;67.75
65989;HTU21D;53592;51.402;6.054;2023-05-19T03:58:15;10.06;67.97
65989;HTU21D;53592;51.402;6.054;2023-05-19T04:00:41;10.07;67.95
65989;HTU21D;53592;51.402;6.054;2023-05-19T04:03:06;10.06;68.10
65989;HTU21D;53592;51.402;6.054;2023-05-19T04:05:32;10.09;68.21
65989;HTU21D;53592;51.402;6.054;2023-05-19T04:07:58;10.15;68.06
65989;HTU21D;53592;51.402;6.054;2023-05-19T04:10:24;10.20;67.96
65989;HTU21D;53592;51.402;6.054;2023-05-19T04:12:49;10.23;67.92
65989;HTU21D;53592;51.402;6.054;2023-05-19T04:15:15;10.29;67.65
65989;HTU21D;53592;51.402;6.054;2023-05-19T04:17:41;10.33;67.56
65989;HTU21D;53592;51.402;6.054;2023-05-19T04:20:07;10.31;67.64
65989;HTU21D;53592;51.402;6.054;2023-05-19T04:22:32;10.31;67.67
65989;HTU21D;53592;51.402;6.054;2023-05-19T04:24:58;10.36;67.83
65989;HTU21D;53592;51.402;6.054;2023-05-19T04:27:24;10.39;67.83
65989;HTU21D;53592;51.402;6.054;2023-05-19T04:29:52;10.40;68.00
65989;HTU21D;53592;51.402;6.054;2023-05-19T04:32:19;10.41;67.97
65989;HTU21D;53592;51.402;6.054;2023-05-19T04:34:44;10.42;68.19
65989;HTU21D;53592;51.402;6.054;2023-05-19T04:37:13;10.45;68.13
65989;HTU21D;53592;51.402;6.054;2023-05-19T04:39:43;10.51;68.00
65989;HTU21D;53592;51.402;6.054;2023-05-19T04:42:10;10.52;68.07
65989;HTU21D;53592;51.402;6.054;2023-05-19T04:44:39;10.53;68.42
65989;HTU21D;53592;51.402;6.054;2023-05-19T04:47:08;10.56;68.49
65989;HTU21D;53592;51.402;6.054;2023-05-19T04:49:34;10.62;68.89
65989;HTU21D;53592;51.402;6.054;2023-05-19T04:52:07;10.71;68.96
65989;HTU21D;53592;51.402;6.054;2023-05-19T04:54:35;10.81;69.29
65989;HTU21D;53592;51.402;6.054;2023-05-19T04:57:02;10.90;69.23
65989;HTU21D;53592;51.402;6.054;2023-05-19T04:59:27;11.00;68.60
65989;HTU21D;53592;51.402;6.054;2023-05-19T05:01:53;11.10;68.36
65989;HTU21D;53592;51.402;6.054;2023-05-19T05:04:20;11.24;68.54
65989;HTU21D;53592;51.402;6.054;2023-05-19T05:06:46;11.44;68.16
65989;HTU21D;53592;51.402;6.054;2023-05-19T05:09:13;11.62;67.78
65989;HTU21D;53592;51.402;6.054;2023-05-19T05:11:40;11.81;66.91
65989;HTU21D;53592;51.402;6.054;2023-05-19T05:14:05;11.97;66.77
65989;HTU21D;53592;51.402;6.054;2023-05-19T05:16:31;12.20;66.20
65989;HTU21D;53592;51.402;6.054;2023-05-19T05:18:59;12.44;65.23
65989;HTU21D;53592;51.402;6.054;2023-05-19T05:21:25;12.64;64.67
65989;HTU21D;53592;51.402;6.054;2023-05-19T05:23:51;12.87;64.19
65989;HTU21D;53592;51.402;6.054;2023-05-19T05:26:18;13.04;63.21
65989;HTU21D;53592;51.402;6.054;2023-05-19T05:28:47;13.24;62.34
65989;HTU21D;53592;51.402;6.054;2023-05-19T05:31:13;13.35;61.34
65989;HTU21D;53592;51.402;6.054;2023-05-19T05:33:39;13.50;61.25
65989;HTU21D;53592;51.402;6.054;2023-05-19T05:36:05;13.68;60.89
65989;HTU21D;53592;51.402;6.054;2023-05-19T05:38:30;13.85;60.23
65989;HTU21D;53592;51.402;6.054;2023-05-19T05:40:56;14.01;60.12
65989;HTU21D;53592;51.402;6.054;2023-05-19T05:43:21;14.15;59.53
65989;HTU21D;53592;51.402;6.054;2023-05-19T05:45:47;14.35;58.58
65989;HTU21D;53592;51.402;6.054;2023-05-19T05:48:13;14.55;58.05
65989;HTU21D;53592;51.402;6.054;2023-05-19T05:50:43;14.69;57.84
65989;HTU21D;53592;51.402;6.054;2023-05-19T05:53:17;14.94;57.72
65989;HTU21D;53592;51.402;6.054;2023-05-19T05:55:47;15.23;56.36
65989;HTU21D;53592;51.402;6.054;2023-05-19T05:58:13;15.28;56.31
65989;HTU21D;53592;51.402;6.054;2023-05-19T06:00:40;15.40;55.76
65989;HTU21D;53592;51.402;6.054;2023-05-19T06:03:10;15.57;55.75
65989;HTU21D;53592;51.402;6.054;2023-05-19T06:05:36;16.18;54.71
65989;HTU21D;53592;51.402;6.054;2023-05-19T06:08:02;16.48;53.41
65989;HTU21D;53592;51.402;6.054;2023-05-19T06:10:28;16.54;52.64
65989;HTU21D;53592;51.402;6.054;2023-05-19T06:12:53;16.69;52.36
65989;HTU21D;53592;51.402;6.054;2023-05-19T06:15:20;16.79;51.79
65989;HTU21D;53592;51.402;6.054;2023-05-19T06:17:45;16.96;52.27
65989;HTU21D;53592;51.402;6.054;2023-05-19T06:20:12;17.18;51.42
65989;HTU21D;53592;51.402;6.054;2023-05-19T06:22:37;17.19;50.88
65989;HTU21D;53592;51.402;6.054;2023-05-19T06:25:04;17.26;50.76
65989;HTU21D;53592;51.402;6.054;2023-05-19T06:27:29;17.48;50.27
65989;HTU21D;53592;51.402;6.054;2023-05-19T06:29:55;17.65;49.90
65989;HTU21D;53592;51.402;6.054;2023-05-19T06:32:20;17.87;49.63
65989;HTU21D;53592;51.402;6.054;2023-05-19T06:34:46;18.07;49.29
65989;HTU21D;53592;51.402;6.054;2023-05-19T06:37:22;18.32;48.88
65989;HTU21D;53592;51.402;6.054;2023-05-19T06:39:52;18.59;47.74
65989;HTU21D;53592;51.402;6.054;2023-05-19T06:42:21;18.68;47.17
65989;HTU21D;53592;51.402;6.054;2023-05-19T06:44:51;18.83;46.75
65989;HTU21D;53592;51.402;6.054;2023-05-19T06:47:18;18.92;46.25
65989;HTU21D;53592;51.402;6.054;2023-05-19T06:49:44;18.99;45.96
65989;HTU21D;53592;51.402;6.054;2023-05-19T06:52:11;19.07;45.21
65989;HTU21D;53592;51.402;6.054;2023-05-19T06:54:36;19.05;45.51
65989;HTU21D;53592;51.402;6.054;2023-05-19T06:57:02;19.25;45.99
65989;HTU21D;53592;51.402;6.054;2023-05-19T06:59:28;19.43;45.17
65989;HTU21D;53592;51.402;6.054;2023-05-19T07:01:54;19.52;45.24
65989;HTU21D;53592;51.402;6.054;2023-05-19T07:04:19;19.68;45.10
65989;HTU21D;53592;51.402;6.054;2023-05-19T07:06:45;19.76;43.80
65989;HTU21D;53592;51.402;6.054;2023-05-19T07:09:10;19.79;44.83
65989;HTU21D;53592;51.402;6.054;2023-05-19T07:11:36;20.02;44.13
65989;HTU21D;53592;51.402;6.054;2023-05-19T07:14:01;20.03;43.92
65989;HTU21D;53592;51.402;6.054;2023-05-19T07:16:27;20.16;43.37
65989;HTU21D;53592;51.402;6.054;2023-05-19T07:18:52;20.29;43.28
65989;HTU21D;53592;51.402;6.054;2023-05-19T07:21:18;20.44;42.22
65989;HTU21D;53592;51.402;6.054;2023-05-19T07:23:43;20.63;42.28
65989;HTU21D;53592;51.402;6.054;2023-05-19T07:26:09;20.76;42.00
65989;HTU21D;53592;51.402;6.054;2023-05-19T07:28:34;20.84;41.36
65989;HTU21D;53592;51.402;6.054;2023-05-19T07:31:00;20.86;41.00
65989;HTU21D;53592;51.402;6.054;2023-05-19T07:33:25;21.03;40.40
65989;HTU21D;53592;51.402;6.054;2023-05-19T07:35:52;21.19;40.41
65989;HTU21D;53592;51.402;6.054;2023-05-19T07:38:18;21.10;39.39
65989;HTU21D;53592;51.402;6.054;2023-05-19T07:40:43;20.95;40.32
65989;HTU21D;53592;51.402;6.054;2023-05-19T07:43:08;21.08;40.28
65989;HTU21D;53592;51.402;6.054;2023-05-19T07:45:36;21.20;41.15
65989;HTU21D;53592;51.402;6.054;2023-05-19T07:48:01;21.35;40.82
65989;HTU21D;53592;51.402;6.054;2023-05-19T07:50:27;21.45;39.97
65989;HTU21D;53592;51.402;6.054;2023-05-19T07:52:53;21.77;41.02
65989;HTU21D;53592;51.402;6.054;2023-05-19T07:55:18;22.02;38.94
65989;HTU21D;53592;51.402;6.054;2023-05-19T07:57:48;22.05;37.93
65989;HTU21D;53592;51.402;6.054;2023-05-19T08:00:13;22.32;37.77
65989;HTU21D;53592;51.402;6.054;2023-05-19T08:02:39;22.56;38.58
65989;HTU21D;53592;51.402;6.054;2023-05-19T08:05:06;22.65;38.06
65989;HTU21D;53592;51.402;6.054;2023-05-19T08:07:31;22.79;38.53
65989;HTU21D;53592;51.402;6.054;2023-05-19T08:09:57;23.17;40.80
65989;HTU21D;53592;51.402;6.054;2023-05-19T08:12:22;24.35;39.35
65989;HTU21D;53592;51.402;6.054;2023-05-19T08:14:48;25.75;38.33
65989;HTU21D;53592;51.402;6.054;2023-05-19T08:17:13;26.91;34.42
65989;HTU21D;53592;51.402;6.054;2023-05-19T08:19:39;27.45;32.52
65989;HTU21D;53592;51.402;6.054;2023-05-19T08:22:04;27.86;33.68
65989;HTU21D;53592;51.402;6.054;2023-05-19T08:24:30;28.18;29.61
65989;HTU21D;53592;51.402;6.054;2023-05-19T08:26:58;28.40;29.92
65989;HTU21D;53592;51.402;6.054;2023-05-19T08:29:23;28.72;30.70
65989;HTU21D;53592;51.402;6.054;2023-05-19T08:31:49;28.98;27.80
65989;HTU21D;53592;51.402;6.054;2023-05-19T08:34:14;28.57;25.90
65989;HTU21D;53592;51.402;6.054;2023-05-19T08:36:40;28.16;27.53
65989;HTU21D;53592;51.402;6.054;2023-05-19T08:39:06;28.17;26.39
65989;HTU21D;53592;51.402;6.054;2023-05-19T08:41:31;27.75;26.68
65989;HTU21D;53592;51.402;6.054;2023-05-19T08:43:58;27.47;26.59
65989;HTU21D;53592;51.402;6.054;2023-05-19T08:46:24;27.24;27.91
65989;HTU21D;53592;51.402;6.054;2023-05-19T08:48:56;27.44;26.14
65989;HTU21D;53592;51.402;6.054;2023-05-19T08:51:27;27.43;27.20
65989;HTU21D;53592;51.402;6.054;2023-05-19T08:54:03;27.45;27.33
65989;HTU21D;53592;51.402;6.054;2023-05-19T08:56:32;27.88;30.41
65989;HTU21D;53592;51.402;6.054;2023-05-19T08:58:58;28.38;28.42
65989;HTU21D;53592;51.402;6.054;2023-05-19T09:01:24;28.60;26.73
65989;HTU21D;53592;51.402;6.054;2023-05-19T09:03:53;28.48;24.85
65989;HTU21D;53592;51.402;6.054;2023-05-19T09:06:19;27.91;23.98
65989;HTU21D;53592;51.402;6.054;2023-05-19T09:08:45;27.52;25.35
65989;HTU21D;53592;51.402;6.054;2023-05-19T09:11:11;27.29;25.06
65989;HTU21D;53592;51.402;6.054;2023-05-19T09:13:37;26.93;25.88
65989;HTU21D;53592;51.402;6.054;2023-05-19T09:16:03;26.79;25.87
65989;HTU21D;53592;51.402;6.054;2023-05-19T09:18:30;26.79;27.73
65989;HTU21D;53592;51.402;6.054;2023-05-19T09:20:58;27.09;26.07
65989;HTU21D;53592;51.402;6.054;2023-05-19T09:23:27;27.25;25.51
65989;HTU21D;53592;51.402;6.054;2023-05-19T09:25:54;27.05;24.92
65989;HTU21D;53592;51.402;6.054;2023-05-19T09:28:31;26.72;24.91
65989;HTU21D;53592;51.402;6.054;2023-05-19T09:31:04;26.25;25.86
65989;HTU21D;53592;51.402;6.054;2023-05-19T09:33:32;26.30;27.14
65989;HTU21D;53592;51.402;6.054;2023-05-19T09:35:59;26.38;27.45
65989;HTU21D;53592;51.402;6.054;2023-05-19T09:38:26;26.40;27.56
65989;HTU21D;53592;51.402;6.054;2023-05-19T09:40:56;26.38;26.17
65989;HTU21D;53592;51.402;6.054;2023-05-19T09:43:22;26.41;26.93
65989;HTU21D;53592;51.402;6.054;2023-05-19T09:45:54;26.45;26.29
65989;HTU21D;53592;51.402;6.054;2023-05-19T09:48:19;26.58;26.90
65989;HTU21D;53592;51.402;6.054;2023-05-19T09:50:45;26.55;27.34
65989;HTU21D;53592;51.402;6.054;2023-05-19T09:53:13;26.55;29.38
65989;HTU21D;53592;51.402;6.054;2023-05-19T09:55:39;26.62;30.24
65989;HTU21D;53592;51.402;6.054;2023-05-19T09:58:06;26.93;27.94
65989;HTU21D;53592;51.402;6.054;2023-05-19T10:00:31;26.95;27.78
65989;HTU21D;53592;51.402;6.054;2023-05-19T10:02:58;27.00;27.16
65989;HTU21D;53592;51.402;6.054;2023-05-19T10:05:26;27.02;26.97
65989;HTU21D;53592;51.402;6.054;2023-05-19T10:07:54;27.06;26.23
65989;HTU21D;53592;51.402;6.054;2023-05-19T10:10:21;27.09;24.08
65989;HTU21D;53592;51.402;6.054;2023-05-19T10:12:48;26.87;26.71
65989;HTU21D;53592;51.402;6.054;2023-05-19T10:15:17;26.80;26.16
65989;HTU21D;53592;51.402;6.054;2023-05-19T10:17:44;26.75;25.43
65989;HTU21D;53592;51.402;6.054;2023-05-19T10:20:13;26.73;28.32
65989;HTU21D;53592;51.402;6.054;2023-05-19T10:22:44;26.89;28.87
65989;HTU21D;53592;51.402;6.054;2023-05-19T10:25:10;27.25;26.93
65989;HTU21D;53592;51.402;6.054;2023-05-19T10:30:25;26.90;24.83
65989;HTU21D;53592;51.402;6.054;2023-05-19T10:32:52;26.81;26.71
65989;HTU21D;53592;51.402;6.054;2023-05-19T10:40:27;27.52;28.74
65989;HTU21D;53592;51.402;6.054;2023-05-19T10:45:29;27.57;25.88
65989;HTU21D;53592;51.402;6.054;2023-05-19T10:47:58;27.34;25.37
65989;HTU21D;53592;51.402;6.054;2023-05-19T10:50:24;27.28;26.97
65989;HTU21D;53592;51.402;6.054;2023-05-19T10:52:55;27.50;27.89
65989;HTU21D;53592;51.402;6.054;2023-05-19T10:55:46;27.49;24.78
65989;HTU21D;53592;51.402;6.054;2023-05-19T11:01:15;27.26;26.62
65989;HTU21D;53592;51.402;6.054;2023-05-19T11:03:51;27.14;25.88
65989;HTU21D;53592;51.402;6.054;2023-05-19T11:11:41;27.07;26.78
65989;HTU21D;53592;51.402;6.054;2023-05-19T11:14:10;26.97;26.20
65989;HTU21D;53592;51.402;6.054;2023-05-19T11:16:39;26.98;26.21
65989;HTU21D;53592;51.402;6.054;2023-05-19T11:19:06;26.78;25.46
65989;HTU21D;53592;51.402;6.054;2023-05-19T11:22:09;26.67;26.20
65989;HTU21D;53592;51.402;6.054;2023-05-19T11:24:36;26.75;25.20
65989;HTU21D;53592;51.402;6.054;2023-05-19T11:27:24;26.66;25.30
65989;HTU21D;53592;51.402;6.054;2023-05-19T11:29:52;26.68;24.08
65989;HTU21D;53592;51.402;6.054;2023-05-19T11:32:20;26.61;25.95
65989;HTU21D;53592;51.402;6.054;2023-05-19T11:34:48;26.62;24.74
65989;HTU21D;53592;51.402;6.054;2023-05-19T11:37:14;26.52;24.16
65989;HTU21D;53592;51.402;6.054;2023-05-19T11:39:40;26.47;24.27
65989;HTU21D;53592;51.402;6.054;2023-05-19T11:42:08;26.20;24.38
65989;HTU21D;53592;51.402;6.054;2023-05-19T11:44:35;26.16;25.55
65989;HTU21D;53592;51.402;6.054;2023-05-19T11:47:00;26.17;25.01
65989;HTU21D;53592;51.402;6.054;2023-05-19T11:49:27;26.07;25.11
65989;HTU21D;53592;51.402;6.054;2023-05-19T11:51:53;25.93;25.36
65989;HTU21D;53592;51.402;6.054;2023-05-19T11:54:19;25.99;25.57
65989;HTU21D;53592;51.402;6.054;2023-05-19T11:56:45;25.95;24.82
65989;HTU21D;53592;51.402;6.054;2023-05-19T11:59:11;26.04;26.58
65989;HTU21D;53592;51.402;6.054;2023-05-19T12:01:37;26.15;28.07
65989;HTU21D;53592;51.402;6.054;2023-05-19T12:04:07;26.26;25.91
65989;HTU21D;53592;51.402;6.054;2023-05-19T12:06:34;26.23;26.30
65989;HTU21D;53592;51.402;6.054;2023-05-19T12:09:01;26.37;26.48
65989;HTU21D;53592;51.402;6.054;2023-05-19T12:11:29;26.46;27.24
65989;HTU21D;53592;51.402;6.054;2023-05-19T12:14:00;26.36;25.47
65989;HTU21D;53592;51.402;6.054;2023-05-19T12:16:33;26.24;26.46
65989;HTU21D;53592;51.402;6.054;2023-05-19T12:19:00;26.31;25.70
65989;HTU21D;53592;51.402;6.054;2023-05-19T12:21:25;26.24;26.04
65989;HTU21D;53592;51.402;6.054;2023-05-19T12:23:51;26.43;27.38
65989;HTU21D;53592;51.402;6.054;2023-05-19T12:26:17;26.57;27.14
65989;HTU21D;53592;51.402;6.054;2023-05-19T12:28:48;26.43;26.17
65989;HTU21D;53592;51.402;6.054;2023-05-19T12:31:16;26.50;27.58
65989;HTU21D;53592;51.402;6.054;2023-05-19T12:33:41;26.62;27.24
65989;HTU21D;53592;51.402;6.054;2023-05-19T12:36:09;26.75;26.78
65989;HTU21D;53592;51.402;6.054;2023-05-19T12:38:34;26.70;25.97
65989;HTU21D;53592;51.402;6.054;2023-05-19T12:41:01;26.79;26.58
65989;HTU21D;53592;51.402;6.054;2023-05-19T12:43:27;26.90;26.68
65989;HTU21D;53592;51.402;6.054;2023-05-19T12:45:53;27.05;26.25
65989;HTU21D;53592;51.402;6.054;2023-05-19T12:48:21;26.98;25.85
65989;HTU21D;53592;51.402;6.054;2023-05-19T12:50:47;26.84;24.72
65989;HTU21D;53592;51.402;6.054;2023-05-19T12:53:14;26.58;25.07
65989;HTU21D;53592;51.402;6.054;2023-05-19T12:55:41;26.50;25.96
65989;HTU21D;53592;51.402;6.054;2023-05-19T12:58:10;26.42;25.26
65989;HTU21D;53592;51.402;6.054;2023-05-19T13:00:44;26.48;25.12
65989;HTU21D;53592;51.402;6.054;2023-05-19T13:03:18;26.50;24.30
65989;HTU21D;53592;51.402;6.054;2023-05-19T13:05:49;26.49;24.59
65989;HTU21D;53592;51.402;6.054;2023-05-19T13:08:17;26.53;24.50
65989;HTU21D;53592;51.402;6.054;2023-05-19T13:10:44;26.40;24.49
65989;HTU21D;53592;51.402;6.054;2023-05-19T13:13:11;26.20;24.43
65989;HTU21D;53592;51.402;6.054;2023-05-19T13:15:40;25.98;24.77
65989;HTU21D;53592;51.402;6.054;2023-05-19T13:18:07;26.07;26.41
65989;HTU21D;53592;51.402;6.054;2023-05-19T13:20:34;26.18;26.15
65989;HTU21D;53592;51.402;6.054;2023-05-19T13:23:00;26.11;26.18
65989;HTU21D;53592;51.402;6.054;2023-05-19T13:25:26;26.06;26.63
65989;HTU21D;53592;51.402;6.054;2023-05-19T13:27:52;26.04;25.36
65989;HTU21D;53592;51.402;6.054;2023-05-19T13:30:19;25.82;25.48
65989;HTU21D;53592;51.402;6.054;2023-05-19T13:32:46;25.78;26.74
65989;HTU21D;53592;51.402;6.054;2023-05-19T13:35:14;25.69;26.76
65989;HTU21D;53592;51.402;6.054;2023-05-19T13:37:43;25.31;27.84
65989;HTU21D;53592;51.402;6.054;2023-05-19T13:40:09;25.00;28.94
65989;HTU21D;53592;51.402;6.054;2023-05-19T13:42:35;24.83;29.45
65989;HTU21D;53592;51.402;6.054;2023-05-19T13:45:01;24.84;29.74
65989;HTU21D;53592;51.402;6.054;2023-05-19T13:47:27;24.87;30.41
65989;HTU21D;53592;51.402;6.054;2023-05-19T13:49:53;24.87;29.05
65989;HTU21D;53592;51.402;6.054;2023-05-19T13:52:20;24.95;28.00
65989;HTU21D;53592;51.402;6.054;2023-05-19T13:54:46;25.05;28.78
65989;HTU21D;53592;51.402;6.054;2023-05-19T13:57:13;25.01;29.16
65989;HTU21D;53592;51.402;6.054;2023-05-19T13:59:38;24.91;29.32
65989;HTU21D;53592;51.402;6.054;2023-05-19T14:02:05;24.68;29.29
65989;HTU21D;53592;51.402;6.054;2023-05-19T14:04:30;24.58;29.60
65989;HTU21D;53592;51.402;6.054;2023-05-19T14:06:56;24.62;30.60
65989;HTU21D;53592;51.402;6.054;2023-05-19T14:09:23;24.80;30.52
65989;HTU21D;53592;51.402;6.054;2023-05-19T14:11:49;24.86;29.25
65989;HTU21D;53592;51.402;6.054;2023-05-19T14:14:14;24.76;28.95
65989;HTU21D;53592;51.402;6.054;2023-05-19T14:16:40;24.61;29.45
65989;HTU21D;53592;51.402;6.054;2023-05-19T14:19:06;24.47;29.84
65989;HTU21D;53592;51.402;6.054;2023-05-19T14:21:31;24.53;30.60
65989;HTU21D;53592;51.402;6.054;2023-05-19T14:23:57;24.54;30.64
65989;HTU21D;53592;51.402;6.054;2023-05-19T14:26:23;24.58;30.26
65989;HTU21D;53592;51.402;6.054;2023-05-19T14:28:49;24.64;30.41
65989;HTU21D;53592;51.402;6.054;2023-05-19T14:31:15;24.59;30.29
65989;HTU21D;53592;51.402;6.054;2023-05-19T14:33:41;24.42;29.94
65989;HTU21D;53592;51.402;6.054;2023-05-19T14:36:08;24.43;30.54
65989;HTU21D;53592;51.402;6.054;2023-05-19T14:38:33;24.44;30.07
65989;HTU21D;53592;51.402;6.054;2023-05-19T14:40:59;24.42;29.26
65989;HTU21D;53592;51.402;6.054;2023-05-19T14:43:25;24.50;29.69
65989;HTU21D;53592;51.402;6.054;2023-05-19T14:45:50;24.54;29.69
65989;HTU21D;53592;51.402;6.054;2023-05-19T14:48:16;24.51;29.58
65989;HTU21D;53592;51.402;6.054;2023-05-19T14:50:42;24.53;30.29
65989;HTU21D;53592;51.402;6.054;2023-05-19T14:53:07;24.49;29.64
65989;HTU21D;53592;51.402;6.054;2023-05-19T14:55:33;24.46;29.87
65989;HTU21D;53592;51.402;6.054;2023-05-19T14:57:58;24.53;30.18
65989;HTU21D;53592;51.402;6.054;2023-05-19T15:00:24;24.50;29.16
65989;HTU21D;53592;51.402;6.054;2023-05-19T15:02:53;24.33;28.61
65989;HTU21D;53592;51.402;6.054;2023-05-19T15:05:19;24.19;29.30
65989;HTU21D;53592;51.402;6.054;2023-05-19T15:07:44;24.14;29.39
65989;HTU21D;53592;51.402;6.054;2023-05-19T15:10:13;24.05;29.83
65989;HTU21D;53592;51.402;6.054;2023-05-19T15:12:39;23.99;30.28
65989;HTU21D;53592;51.402;6.054;2023-05-19T15:15:05;23.92;30.18
65989;HTU21D;53592;51.402;6.054;2023-05-19T15:17:30;23.87;30.07
65989;HTU21D;53592;51.402;6.054;2023-05-19T15:19:56;23.76;30.09
65989;HTU21D;53592;51.402;6.054;2023-05-19T15:22:21;23.67;30.05
65989;HTU21D;53592;51.402;6.054;2023-05-19T15:24:47;23.58;30.71
65989;HTU21D;53592;51.402;6.054;2023-05-19T15:27:12;23.59;29.97
65989;HTU21D;53592;51.402;6.054;2023-05-19T15:29:38;23.54;30.23
65989;HTU21D;53592;51.402;6.054;2023-05-19T15:32:03;23.56;30.10
65989;HTU21D;53592;51.402;6.054;2023-05-19T15:34:29;23.49;30.72
65989;HTU21D;53592;51.402;6.054;2023-05-19T15:36:55;23.47;30.45
65989;HTU21D;53592;51.402;6.054;2023-05-19T15:39:20;23.35;30.34
65989;HTU21D;53592;51.402;6.054;2023-05-19T15:41:45;23.23;30.55
65989;HTU21D;53592;51.402;6.054;2023-05-19T15:44:11;23.24;31.25
65989;HTU21D;53592;51.402;6.054;2023-05-19T15:46:36;23.27;31.16